Aérodrome :
LOGIN :

S'inscrire | Disclaimer

   EN    FR    IT 

 










Légende :    VFR   VFR Marginal   IFR   IFR Intensif   IFR Très Intensif
Visi : 
Plafond : 
>= 8 km
>= 3000ft
5 à 8 km
1000 à 3000 ft
1500m à 5 km
500 à 1000 ft
800 à 1500m
200 à 500 ft
< 800m
< 200 ft
Symboles :   Orages  Brouillard  Fortes neiges  Fortes précipitations  Vent > 20 kt
SIGMETs :   Divers  Orages  Givrage  Turbulence  Onde Orograph.  Cendres Volcan.






- Altitude de l'aérodrome : 13 ft
- Code IATA : SNR


LFRZ - St-Nazaire

DERNIER METAR :
  • 041730Z AUTO 28006KT CAVOK 04/01 Q0987 TEMPO 4000 SHRA SCT020 SCT030CB

METARs EXPIRÉS :
  • 041700Z AUTO 27005KT CAVOK 05/00 Q0987 TEMPO 4000 SHRA SCT010 BKN030CB
  • 041630Z AUTO 27008KT CAVOK 06/M00 Q0987 TEMPO 4000 SHRA SCT010 BKN030CB
  • 041600Z AUTO 28010KT CAVOK 06/01 Q0987 TEMPO 4000 SHRA SCT010 BKN030CB
  • 041530Z AUTO 30005KT 260V340 CAVOK 07/00 Q0986 TEMPO 4000 SHRA SCT010 BKN030CB
  • 041500Z AUTO 29007KT 260V340 9999 FEW042 08/01 Q0986 TEMPO 4000 SHRA SCT010 BKN030CB
  • 041430Z AUTO 28010KT 9999 BKN041 BKN047 BKN064 08/00 Q0986 TEMPO 4000 SHRA SCT010 BKN030CB

TAF TAF LFRZ
Valide du 04 à 18h jusqu'au 05 à 18h UTC


041700Z 0418/0518 28008KT 9999 SCT025 SCT040
TEMPO 0418/0421 4000 SHRA SCT020 SCT030CB
PROB30
TEMPO 0500/0505 -SHRA SCT020TCU
BECMG 0505/0508 15010KT 3000 RA BKN006 BKN020
BECMG 0510/0512 29010KT 9999 SHRA SCT020CB



MET'MAP, la Météo Aéronautique d'un coup d'oeil ! - Copyright ORBIFLY Décembre 2007 - Disclaimer

ORBIFLY MET'MAP TEAM :

Programmation & Développement : Alexandra Zaïnal
Sur une idée originale de : Baudouin d'Aumeries
Assistance à la programmation : Marc-Olivier Méhu
Soutien technique & logistique : Manuel Goepfert

Contact : metmap@orbifly.com




SOURCES & CREDITS :

   NOAA